createdAt,value
2023-02-20T00:00:35.070Z,19.89
2023-02-20T00:05:56.999Z,19.83
2023-02-20T00:11:18.721Z,19.78
2023-02-20T00:16:40.470Z,19.74
2023-02-20T00:22:02.185Z,19.71
2023-02-20T00:27:23.942Z,19.68
2023-02-20T00:32:48.022Z,19.64
2023-02-20T00:38:09.751Z,19.60
2023-02-20T00:43:31.946Z,19.57
2023-02-20T00:48:53.955Z,19.54
2023-02-20T00:54:16.079Z,19.51
2023-02-20T00:59:37.756Z,19.48
2023-02-20T01:04:59.504Z,19.43
2023-02-20T01:10:21.550Z,19.41
2023-02-20T01:15:43.377Z,19.36
2023-02-20T01:21:05.465Z,19.33
2023-02-20T01:26:27.171Z,19.32
2023-02-20T01:31:53.099Z,19.30
2023-02-20T01:37:15.272Z,19.23
2023-02-20T01:42:37.028Z,19.20
2023-02-20T01:47:58.878Z,19.19
2023-02-20T01:53:23.451Z,19.17
2023-02-20T01:58:48.886Z,19.15
2023-02-20T02:04:12.996Z,19.12
2023-02-20T02:09:44.014Z,19.10
2023-02-20T02:15:17.508Z,19.07
2023-02-20T02:21:03.046Z,19.04
2023-02-20T02:27:06.951Z,19.01
2023-02-20T02:32:55.169Z,18.99
2023-02-20T02:38:53.966Z,18.97
2023-02-20T02:44:15.609Z,18.91
2023-02-20T02:50:06.157Z,18.92
2023-02-20T02:55:30.383Z,18.89
2023-02-20T03:00:58.484Z,18.87
2023-02-20T03:06:36.399Z,18.86
2023-02-20T03:12:01.731Z,18.84
2023-02-20T03:17:33.337Z,18.81
2023-02-20T03:23:05.023Z,18.82
2023-02-20T03:28:39.429Z,18.80
2023-02-20T03:34:26.472Z,18.76
2023-02-20T03:40:13.998Z,18.76
2023-02-20T03:45:39.091Z,18.73
2023-02-20T03:51:13.660Z,18.70
2023-02-20T03:56:41.454Z,18.71
2023-02-20T04:02:08.510Z,18.69
2023-02-20T04:07:45.056Z,18.69
2023-02-20T04:13:07.764Z,18.66
2023-02-20T04:18:30.804Z,18.66
2023-02-20T04:24:18.825Z,18.64
2023-02-20T04:29:40.632Z,18.63
2023-02-20T04:35:02.529Z,18.62
2023-02-20T04:40:25.500Z,18.61
2023-02-20T04:45:47.352Z,18.60
2023-02-20T04:51:09.026Z,18.59
2023-02-20T04:56:30.727Z,18.57
2023-02-20T05:01:55.311Z,18.58
2023-02-20T05:07:18.202Z,18.56
2023-02-20T05:12:39.929Z,18.55
2023-02-20T05:18:01.668Z,18.54
2023-02-20T05:23:23.674Z,18.52
2023-02-20T05:28:45.454Z,18.52
2023-02-20T05:34:08.102Z,18.50
2023-02-20T05:39:29.899Z,18.50
2023-02-20T05:44:51.559Z,18.48
2023-02-20T05:50:13.319Z,18.49
2023-02-20T05:55:35.049Z,18.44
2023-02-20T06:00:56.803Z,18.44
2023-02-20T06:06:19.681Z,18.43
2023-02-20T06:11:41.784Z,18.40
2023-02-20T06:17:03.469Z,18.42
2023-02-20T06:22:25.192Z,18.41
2023-02-20T06:27:46.864Z,18.38
2023-02-20T06:33:08.583Z,18.39
2023-02-20T06:38:30.494Z,18.38
2023-02-20T06:43:52.558Z,18.38
2023-02-20T06:49:14.534Z,18.37
2023-02-20T06:54:39.021Z,18.37
2023-02-20T07:00:00.756Z,18.34
2023-02-20T07:05:22.514Z,18.35
2023-02-20T07:10:44.368Z,18.33
2023-02-20T07:16:06.401Z,18.31
2023-02-20T07:21:28.165Z,18.28
2023-02-20T07:26:50.145Z,18.27
2023-02-20T07:32:11.891Z,18.25
2023-02-20T07:37:33.654Z,18.24
2023-02-20T07:42:55.401Z,18.22
2023-02-20T07:48:17.095Z,18.21
2023-02-20T07:53:38.849Z,18.20
2023-02-20T07:59:01.025Z,18.20
2023-02-20T08:04:22.849Z,18.19
2023-02-20T08:09:47.718Z,18.18
2023-02-20T08:15:12.450Z,18.18
2023-02-20T08:20:34.143Z,18.15
2023-02-20T08:25:55.880Z,18.16
2023-02-20T08:31:31.343Z,18.16
2023-02-20T08:36:54.066Z,18.14
2023-02-20T08:42:17.391Z,18.13
2023-02-20T08:47:39.165Z,18.12
2023-02-20T08:53:01.069Z,18.11
2023-02-20T08:58:24.965Z,18.11
2023-02-20T09:03:47.097Z,18.09
2023-02-20T09:09:08.874Z,18.09
2023-02-20T09:14:30.599Z,18.09
2023-02-20T09:19:52.311Z,18.07
2023-02-20T09:25:15.038Z,18.06
2023-02-20T09:30:36.731Z,18.06
2023-02-20T09:35:58.595Z,18.05
2023-02-20T09:41:33.630Z,18.06
2023-02-20T09:47:03.523Z,18.04
2023-02-20T09:52:26.278Z,18.03
2023-02-20T09:57:53.441Z,18.04
2023-02-20T10:03:27.116Z,18.02
2023-02-20T10:08:50.509Z,18.00
2023-02-20T10:14:21.119Z,18.01
2023-02-20T10:20:02.876Z,18.01
2023-02-20T10:25:30.817Z,18.00
2023-02-20T10:30:55.316Z,17.99
2023-02-20T10:36:25.494Z,17.98
2023-02-20T10:42:10.245Z,17.99
2023-02-20T10:47:43.763Z,18.01
2023-02-20T10:53:13.369Z,18.00
2023-02-20T10:58:52.900Z,18.16
2023-02-20T11:04:21.439Z,18.58
2023-02-20T11:09:43.231Z,19.13
2023-02-20T11:15:12.108Z,19.68
2023-02-20T11:20:35.431Z,20.13
2023-02-20T11:26:21.840Z,20.52
2023-02-20T11:31:45.288Z,20.85
2023-02-20T11:37:07.875Z,21.15
2023-02-20T11:42:34.881Z,21.31
2023-02-20T11:48:12.414Z,21.35
2023-02-20T11:53:34.283Z,21.25
2023-02-20T11:59:25.636Z,21.12
2023-02-20T12:05:10.034Z,20.92
2023-02-20T12:10:39.731Z,20.72
2023-02-20T12:16:09.360Z,20.59
2023-02-20T12:21:59.601Z,20.55
2023-02-20T12:27:49.055Z,20.64
2023-02-20T12:33:48.691Z,20.74
2023-02-20T12:39:34.503Z,20.87
2023-02-20T12:45:29.237Z,20.99
2023-02-20T12:50:51.030Z,21.05
2023-02-20T12:56:39.950Z,21.09
2023-02-20T13:02:15.846Z,21.12
2023-02-20T13:07:44.074Z,21.15
2023-02-20T13:13:11.232Z,21.18
2023-02-20T13:18:58.719Z,21.22
2023-02-20T13:24:20.349Z,21.23
2023-02-20T13:30:02.817Z,21.28
2023-02-20T13:35:42.604Z,21.34
2023-02-20T13:41:07.967Z,21.49
2023-02-20T13:46:30.641Z,21.72
2023-02-20T13:51:52.569Z,21.98
2023-02-20T13:57:19.063Z,22.17
2023-02-20T14:02:41.813Z,22.32
2023-02-20T14:08:03.605Z,22.47
2023-02-20T14:13:39.400Z,22.57
2023-02-20T14:19:27.004Z,22.64
2023-02-20T14:25:16.551Z,22.58
2023-02-20T14:30:38.944Z,22.43
2023-02-20T14:36:21.966Z,22.29
2023-02-20T14:41:59.142Z,22.17
2023-02-20T14:47:21.207Z,22.03
2023-02-20T14:52:42.979Z,21.91
2023-02-20T14:58:08.584Z,21.81
2023-02-20T15:03:31.878Z,21.73
2023-02-20T15:08:58.810Z,21.65
2023-02-20T15:14:24.350Z,21.59
2023-02-20T15:19:46.662Z,21.55
2023-02-20T15:25:26.329Z,21.54
2023-02-20T15:31:09.017Z,21.50
2023-02-20T15:36:30.741Z,21.44
2023-02-20T15:47:35.388Z,21.42
2023-02-20T15:52:58.901Z,21.41
2023-02-20T15:58:27.011Z,21.44
2023-02-20T16:03:53.267Z,21.48
2023-02-20T16:09:15.866Z,21.50
2023-02-20T16:14:37.756Z,21.52
2023-02-20T16:19:59.807Z,21.54
2023-02-20T16:25:23.479Z,21.54
2023-02-20T16:30:46.326Z,21.55
2023-02-20T16:36:13.753Z,21.52
2023-02-20T16:41:39.832Z,21.49
2023-02-20T16:47:01.851Z,21.48
2023-02-20T16:52:25.496Z,21.45
2023-02-20T16:57:47.234Z,21.39
2023-02-20T17:03:10.080Z,21.37
2023-02-20T17:08:31.946Z,21.39
2023-02-20T17:13:53.714Z,21.39
2023-02-20T17:19:16.498Z,21.35
2023-02-20T17:24:42.857Z,21.37
2023-02-20T17:30:05.216Z,21.36
2023-02-20T17:35:26.976Z,21.34
2023-02-20T17:40:48.653Z,21.32
2023-02-20T17:46:11.969Z,21.24
2023-02-20T17:51:33.778Z,21.12
2023-02-20T17:56:55.628Z,21.02
2023-02-20T18:02:18.832Z,20.93
2023-02-20T18:07:40.939Z,20.82
2023-02-20T18:13:03.070Z,20.73
2023-02-20T18:18:24.940Z,20.65
2023-02-20T18:23:46.705Z,20.59
2023-02-20T18:29:08.456Z,20.53
2023-02-20T18:34:31.572Z,20.45
2023-02-20T18:39:53.296Z,20.39
2023-02-20T18:45:15.090Z,20.32
2023-02-20T18:50:37.269Z,20.27
2023-02-20T18:55:59.101Z,20.27
2023-02-20T19:01:22.112Z,20.46
2023-02-20T19:06:44.991Z,20.82
2023-02-20T19:12:07.260Z,21.34
2023-02-20T19:17:29.009Z,21.81
2023-02-20T19:22:50.871Z,22.16
2023-02-20T19:28:12.583Z,22.28
2023-02-20T19:33:34.371Z,22.25
2023-02-20T19:38:56.171Z,22.17
2023-02-20T19:44:18.070Z,22.04
2023-02-20T19:49:44.113Z,21.90
2023-02-20T19:55:06.113Z,21.77
2023-02-20T20:06:08.801Z,21.44
2023-02-20T20:11:30.652Z,21.28
2023-02-20T20:16:52.378Z,21.21
2023-02-20T20:22:15.429Z,21.23
2023-02-20T20:27:38.065Z,21.46
2023-02-20T20:33:00.620Z,21.77
2023-02-20T20:38:22.329Z,22.05
2023-02-20T20:43:45.439Z,22.32
2023-02-20T20:49:07.419Z,22.55
2023-02-20T20:54:29.278Z,22.68
2023-02-20T20:59:51.827Z,22.78
2023-02-20T21:05:14.122Z,22.85
2023-02-20T21:10:36.530Z,22.95
2023-02-20T21:15:58.478Z,23.00
2023-02-20T21:21:26.789Z,22.95
2023-02-20T21:26:48.852Z,22.86
2023-02-20T21:32:10.659Z,22.81
2023-02-20T21:37:32.415Z,22.70
2023-02-20T21:43:12.549Z,22.55
2023-02-20T21:48:34.190Z,22.39
2023-02-20T21:53:55.952Z,22.24
2023-02-20T21:59:17.639Z,22.12
2023-02-20T22:04:39.383Z,21.94
2023-02-20T22:10:19.445Z,21.81
2023-02-20T22:15:59.554Z,21.65
2023-02-20T22:21:42.740Z,21.52
2023-02-20T22:27:23.329Z,21.41
2023-02-20T22:33:03.396Z,21.31
2023-02-20T22:38:43.431Z,21.18
2023-02-20T22:44:23.733Z,21.08
2023-02-20T22:50:03.926Z,20.97
2023-02-20T22:55:43.972Z,20.90
2023-02-20T23:01:24.672Z,20.83
2023-02-20T23:07:04.822Z,20.76
2023-02-20T23:12:44.989Z,20.68
2023-02-20T23:18:25.368Z,20.63
2023-02-20T23:24:06.258Z,20.57
2023-02-20T23:29:46.874Z,20.51
2023-02-20T23:35:27.932Z,20.45
2023-02-20T23:41:08.549Z,20.41
2023-02-20T23:46:48.883Z,20.36
2023-02-20T23:52:29.579Z,20.31
2023-02-20T23:58:09.590Z,20.29
